createdAt,value
2023-03-04T00:00:38.430Z,63.98
2023-03-04T00:01:38.536Z,63.97
2023-03-04T00:02:38.387Z,63.99
2023-03-04T00:03:38.385Z,64.01
2023-03-04T00:04:39.291Z,64.01
2023-03-04T00:05:38.384Z,64.04
2023-03-04T00:06:38.337Z,64.05
2023-03-04T00:07:38.350Z,64.04
2023-03-04T00:08:38.340Z,64.03
2023-03-04T00:09:38.338Z,64.04
2023-03-04T00:10:39.251Z,64.03
2023-03-04T00:11:38.279Z,64.03
2023-03-04T00:12:38.344Z,64.02
2023-03-04T00:13:38.247Z,64.03
2023-03-04T00:14:38.274Z,63.99
2023-03-04T00:15:38.223Z,63.95
2023-03-04T00:16:39.326Z,63.90
2023-03-04T00:17:38.180Z,63.88
2023-03-04T00:18:38.224Z,63.85
2023-03-04T00:19:38.204Z,63.83
2023-03-04T00:20:38.152Z,63.81
2023-03-04T00:21:39.090Z,63.80
2023-03-04T00:22:38.129Z,63.78
2023-03-04T00:23:38.141Z,63.77
2023-03-04T00:24:38.123Z,63.74
2023-03-04T00:25:38.078Z,63.74
2023-03-04T00:26:38.132Z,63.73
2023-03-04T00:27:39.037Z,63.73
2023-03-04T00:28:38.047Z,63.70
2023-03-04T00:29:38.057Z,63.71
2023-03-04T00:30:38.059Z,63.73
2023-03-04T00:31:38.086Z,63.73
2023-03-04T00:32:39.046Z,63.72
2023-03-04T00:33:37.984Z,63.72
2023-03-04T00:34:38.038Z,63.71
2023-03-04T00:35:38.030Z,63.68
2023-03-04T00:36:37.958Z,63.67
2023-03-04T00:37:38.908Z,63.66
2023-03-04T00:38:37.934Z,63.65
2023-03-04T00:39:37.952Z,63.64
2023-03-04T00:40:37.902Z,63.63
2023-03-04T00:41:37.888Z,63.59
2023-03-04T00:42:38.823Z,63.59
2023-03-04T00:43:37.854Z,63.62
2023-03-04T00:44:37.846Z,63.65
2023-03-04T00:45:37.949Z,63.67
2023-03-04T00:46:37.847Z,63.66
2023-03-04T00:47:37.813Z,63.68
2023-03-04T00:48:38.725Z,63.69
2023-03-04T00:49:37.786Z,63.66
2023-03-04T00:50:37.791Z,63.66
2023-03-04T00:51:37.799Z,63.66
2023-03-04T00:52:37.742Z,63.68
2023-03-04T00:53:38.670Z,63.70
2023-03-04T00:54:37.739Z,63.69
2023-03-04T00:55:37.766Z,63.68
2023-03-04T00:56:37.684Z,63.66
2023-03-04T00:57:37.764Z,63.64
2023-03-04T00:58:37.674Z,63.63
2023-03-04T00:59:38.604Z,63.65
2023-03-04T01:00:37.662Z,63.68
2023-03-04T01:01:37.647Z,63.67
2023-03-04T01:02:37.669Z,63.65
2023-03-04T01:03:37.622Z,63.67
2023-03-04T01:04:38.552Z,63.65
2023-03-04T01:05:37.586Z,63.62
2023-03-04T01:06:37.579Z,63.59
2023-03-04T01:07:37.635Z,63.56
2023-03-04T01:08:37.561Z,63.53
2023-03-04T01:09:38.462Z,63.51
2023-03-04T01:10:37.533Z,63.50
2023-03-04T01:11:37.533Z,63.51
2023-03-04T01:12:37.488Z,63.51
2023-03-04T01:13:37.499Z,63.57
2023-03-04T01:14:37.467Z,63.62
2023-03-04T01:15:38.398Z,63.62
2023-03-04T01:16:37.483Z,63.61
2023-03-04T01:17:37.468Z,63.60
2023-03-04T01:18:37.432Z,63.60
2023-03-04T01:19:37.397Z,63.59
2023-03-04T01:20:37.380Z,63.62
2023-03-04T01:21:38.329Z,63.64
2023-03-04T01:22:37.412Z,63.66
2023-03-04T01:23:37.373Z,63.67
2023-03-04T01:24:37.346Z,63.63
2023-03-04T01:25:37.340Z,63.62
2023-03-04T01:26:37.376Z,63.64
2023-03-04T01:27:38.262Z,63.64
2023-03-04T01:28:37.288Z,63.63
2023-03-04T01:29:37.263Z,63.63
2023-03-04T01:30:37.343Z,63.60
2023-03-04T01:31:37.248Z,63.58
2023-03-04T01:32:37.270Z,63.59
2023-03-04T01:33:38.151Z,63.56
2023-03-04T01:34:37.257Z,63.56
2023-03-04T01:35:37.258Z,63.60
2023-03-04T01:36:37.183Z,63.62
2023-03-04T01:37:37.189Z,63.62
2023-03-04T01:38:38.116Z,63.63
2023-03-04T01:39:37.176Z,63.65
2023-03-04T01:40:37.145Z,63.66
2023-03-04T01:41:37.128Z,63.65
2023-03-04T01:42:37.123Z,63.67
2023-03-04T01:43:38.072Z,63.64
2023-03-04T01:44:37.088Z,63.63
2023-03-04T01:45:39.743Z,63.60
2023-03-04T01:46:37.146Z,63.59
2023-03-04T01:47:37.072Z,63.60
2023-03-04T01:48:38.054Z,63.60
2023-03-04T01:49:37.043Z,63.59
2023-03-04T01:50:37.026Z,63.61
2023-03-04T01:51:36.998Z,63.61
2023-03-04T01:52:37.004Z,63.62
2023-03-04T01:53:37.943Z,63.62
2023-03-04T01:54:36.952Z,63.64
2023-03-04T01:55:36.975Z,63.67
2023-03-04T01:56:36.933Z,63.67
2023-03-04T01:57:36.955Z,63.64
2023-03-04T01:58:37.834Z,63.65
2023-03-04T01:59:36.936Z,63.69
2023-03-04T02:00:36.886Z,63.69
2023-03-04T02:01:36.935Z,63.68
2023-03-04T02:02:36.890Z,63.67
2023-03-04T02:03:37.813Z,63.66
2023-03-04T02:04:36.882Z,63.71
2023-03-04T02:05:36.839Z,63.73
2023-03-04T02:06:36.844Z,63.73
2023-03-04T02:07:36.835Z,63.75
2023-03-04T02:08:37.730Z,63.75
2023-03-04T02:09:36.799Z,63.74
2023-03-04T02:10:36.741Z,63.73
2023-03-04T02:11:36.746Z,63.74
2023-03-04T02:12:36.723Z,63.73
2023-03-04T02:13:36.740Z,63.72
2023-03-04T02:14:37.934Z,63.69
2023-03-04T02:15:36.731Z,63.71
2023-03-04T02:16:36.692Z,63.69
2023-03-04T02:17:36.673Z,63.68
2023-03-04T02:18:36.653Z,63.69
2023-03-04T02:19:36.628Z,63.73
2023-03-04T02:20:37.547Z,63.74
2023-03-04T02:21:36.643Z,63.75
2023-03-04T02:22:36.623Z,63.77
2023-03-04T02:23:36.606Z,63.77
2023-03-04T02:24:36.602Z,63.77
2023-03-04T02:25:36.564Z,63.76
2023-03-04T02:26:37.501Z,63.75
2023-03-04T02:27:36.553Z,63.75
2023-03-04T02:28:36.523Z,63.77
2023-03-04T02:29:36.512Z,63.81
2023-03-04T02:30:36.501Z,63.80
2023-03-04T02:31:36.616Z,63.80
2023-03-04T02:32:37.422Z,63.80
2023-03-04T02:33:36.485Z,63.80
2023-03-04T02:34:36.481Z,63.80
2023-03-04T02:35:36.463Z,63.79
2023-03-04T02:36:36.459Z,63.77
2023-03-04T02:37:36.434Z,63.72
2023-03-04T02:38:37.328Z,63.71
2023-03-04T02:39:36.413Z,63.73
2023-03-04T02:40:36.378Z,63.75
2023-03-04T02:41:36.403Z,63.76
2023-03-04T02:42:36.351Z,63.78
2023-03-04T02:43:36.323Z,63.79
2023-03-04T02:44:37.267Z,63.78
2023-03-04T02:45:36.318Z,63.78
2023-03-04T02:46:36.365Z,63.75
2023-03-04T02:47:36.268Z,63.78
2023-03-04T02:48:36.281Z,63.75
2023-03-04T02:49:36.261Z,63.76
2023-03-04T02:50:37.202Z,63.75
2023-03-04T02:51:36.241Z,63.77
2023-03-04T02:52:36.249Z,63.80
2023-03-04T02:53:36.231Z,63.82
2023-03-04T02:54:36.237Z,63.82
2023-03-04T02:55:36.203Z,63.82
2023-03-04T02:56:37.110Z,63.84
2023-03-04T02:57:36.170Z,63.85
2023-03-04T02:58:36.172Z,63.85
2023-03-04T02:59:36.178Z,63.85
2023-03-04T03:00:36.105Z,63.85
2023-03-04T03:01:37.061Z,63.86
2023-03-04T03:02:36.106Z,63.84
2023-03-04T03:03:36.133Z,63.82
2023-03-04T03:04:36.071Z,63.79
2023-03-04T03:05:36.065Z,63.76
2023-03-04T03:06:36.974Z,63.78
2023-03-04T03:07:36.187Z,63.79
2023-03-04T03:08:36.051Z,63.79
2023-03-04T03:09:36.051Z,63.81
2023-03-04T03:10:36.004Z,63.83
2023-03-04T03:11:36.910Z,63.85
2023-03-04T03:12:36.001Z,63.86
2023-03-04T03:13:35.997Z,63.86
2023-03-04T03:14:35.933Z,63.88
2023-03-04T03:15:35.931Z,63.89
2023-03-04T03:16:35.990Z,63.88
2023-03-04T03:17:36.844Z,63.88
2023-03-04T03:18:35.884Z,63.86
2023-03-04T03:19:35.893Z,63.86
2023-03-04T03:20:35.905Z,63.84
2023-03-04T03:21:35.876Z,63.84
2023-03-04T03:22:35.856Z,63.86
2023-03-04T03:23:36.759Z,63.88
2023-03-04T03:24:35.865Z,63.91
2023-03-04T03:25:35.852Z,63.95
2023-03-04T03:26:35.807Z,64.00
2023-03-04T03:27:35.774Z,64.05
2023-03-04T03:28:35.750Z,64.05
2023-03-04T03:29:36.702Z,64.06
2023-03-04T03:30:35.736Z,64.06
2023-03-04T03:31:35.713Z,64.07
2023-03-04T03:32:35.868Z,64.07
2023-03-04T03:33:35.724Z,64.10
2023-03-04T03:34:35.715Z,64.07
2023-03-04T03:35:36.644Z,64.09
2023-03-04T03:36:35.711Z,64.06
2023-03-04T03:37:35.653Z,64.07
2023-03-04T03:38:35.641Z,64.09
2023-03-04T03:39:35.649Z,64.08
2023-03-04T03:40:36.561Z,64.10
2023-03-04T03:41:35.598Z,64.11
2023-03-04T03:42:35.596Z,64.10
2023-03-04T03:43:35.572Z,64.09
2023-03-04T03:44:35.590Z,64.08
2023-03-04T03:45:36.560Z,64.07
2023-03-04T03:46:35.627Z,64.05
2023-03-04T03:47:35.510Z,64.06
2023-03-04T03:48:35.568Z,64.05
2023-03-04T03:49:35.479Z,64.04
2023-03-04T03:50:35.488Z,64.02
2023-03-04T03:51:36.399Z,64.00
2023-03-04T03:52:35.472Z,64.00
2023-03-04T03:53:35.418Z,63.98
2023-03-04T03:54:35.441Z,63.97
2023-03-04T03:55:35.438Z,64.01
2023-03-04T03:56:36.341Z,64.00
2023-03-04T03:57:35.441Z,63.99
2023-03-04T03:58:35.382Z,63.97
2023-03-04T03:59:35.347Z,63.95
2023-03-04T04:00:35.354Z,63.94
2023-03-04T04:01:35.334Z,63.92
2023-03-04T04:02:36.408Z,63.93
2023-03-04T04:03:35.335Z,63.91
2023-03-04T04:04:35.311Z,63.89
2023-03-04T04:05:35.403Z,63.85
2023-03-04T04:06:35.307Z,63.83
2023-03-04T04:07:35.271Z,63.83
2023-03-04T04:08:36.204Z,63.84
2023-03-04T04:09:35.238Z,63.83
2023-03-04T04:10:35.230Z,63.86
2023-03-04T04:11:35.236Z,63.85
2023-03-04T04:12:35.229Z,63.84
2023-03-04T04:13:36.530Z,63.83
2023-03-04T04:14:36.130Z,63.83
2023-03-04T04:15:35.178Z,63.85
2023-03-04T04:16:35.219Z,63.85
2023-03-04T04:17:35.204Z,63.87
2023-03-04T04:18:35.231Z,63.88
2023-03-04T04:19:36.058Z,63.86
2023-03-04T04:20:35.108Z,63.83
2023-03-04T04:21:35.086Z,63.82
2023-03-04T04:22:35.074Z,63.80
2023-03-04T04:23:35.033Z,63.83
2023-03-04T04:24:35.124Z,63.81
2023-03-04T04:25:36.013Z,63.81
2023-03-04T04:26:34.993Z,63.82
2023-03-04T04:27:35.002Z,63.82
2023-03-04T04:28:35.022Z,63.80
2023-03-04T04:29:34.971Z,63.78
2023-03-04T04:30:35.969Z,63.77
2023-03-04T04:31:34.957Z,63.77
2023-03-04T04:32:35.009Z,63.79
2023-03-04T04:33:34.916Z,63.77
2023-03-04T04:34:34.927Z,63.78
2023-03-04T04:35:35.882Z,63.79
2023-03-04T04:36:34.880Z,63.79
2023-03-04T04:37:34.857Z,63.81
2023-03-04T04:38:34.878Z,63.82
2023-03-04T04:39:34.840Z,63.83
2023-03-04T04:40:34.830Z,63.84
2023-03-04T04:41:35.779Z,63.82
2023-03-04T04:42:34.812Z,63.84
2023-03-04T04:43:34.819Z,63.81
2023-03-04T04:44:34.789Z,63.84
2023-03-04T04:45:34.771Z,63.84
2023-03-04T04:46:35.666Z,63.84
2023-03-04T04:47:34.724Z,63.85
2023-03-04T04:48:34.751Z,63.84
2023-03-04T04:49:34.727Z,63.83
2023-03-04T04:50:34.700Z,63.83
2023-03-04T04:51:35.623Z,63.86
2023-03-04T04:52:34.657Z,63.86
2023-03-04T04:53:34.651Z,63.84
2023-03-04T04:54:34.695Z,63.85
2023-03-04T04:55:34.641Z,63.86
2023-03-04T04:56:34.632Z,63.88
2023-03-04T04:57:35.540Z,63.90
2023-03-04T04:58:34.597Z,63.89
2023-03-04T04:59:34.615Z,63.87
2023-03-04T05:00:34.592Z,63.85
2023-03-04T05:01:34.629Z,63.84
2023-03-04T05:02:34.535Z,63.84
2023-03-04T05:03:35.518Z,63.84
2023-03-04T05:04:34.566Z,63.85
2023-03-04T05:05:34.536Z,63.86
2023-03-04T05:06:34.488Z,63.87
2023-03-04T05:07:34.489Z,63.87
2023-03-04T05:08:35.418Z,63.85
2023-03-04T05:09:34.503Z,63.85
2023-03-04T05:10:34.438Z,63.88
2023-03-04T05:11:34.445Z,63.91
2023-03-04T05:12:34.422Z,63.91
2023-03-04T05:13:34.413Z,63.90
2023-03-04T05:14:35.369Z,63.86
2023-03-04T05:15:34.425Z,63.85
2023-03-04T05:16:34.410Z,63.85
2023-03-04T05:17:34.370Z,63.85
2023-03-04T05:18:34.346Z,63.88
2023-03-04T05:19:34.316Z,63.89
2023-03-04T05:20:35.260Z,63.91
2023-03-04T05:21:34.339Z,63.92
2023-03-04T05:22:34.303Z,63.94
2023-03-04T05:23:34.278Z,63.95
2023-03-04T05:24:34.286Z,63.93
2023-03-04T05:25:35.166Z,63.93
2023-03-04T05:26:34.243Z,63.95
2023-03-04T05:27:34.242Z,63.93
2023-03-04T05:28:34.232Z,63.91
2023-03-04T05:29:34.238Z,63.91
2023-03-04T05:30:34.201Z,63.89
2023-03-04T05:31:35.153Z,63.90
2023-03-04T05:32:34.265Z,63.88
2023-03-04T05:33:34.179Z,63.89
2023-03-04T05:34:34.172Z,63.89
2023-03-04T05:35:34.213Z,63.87
2023-03-04T05:36:34.138Z,63.88
2023-03-04T05:37:35.015Z,63.87
2023-03-04T05:38:34.101Z,63.86
2023-03-04T05:39:34.114Z,63.86
2023-03-04T05:40:34.066Z,63.86
2023-03-04T05:41:34.098Z,63.85
2023-03-04T05:42:34.048Z,63.88
2023-03-04T05:43:34.949Z,63.90
2023-03-04T05:44:34.045Z,63.91
2023-03-04T05:45:34.006Z,63.90
2023-03-04T05:46:34.090Z,63.90
2023-03-04T05:47:33.979Z,63.91
2023-03-04T05:48:33.971Z,63.91
2023-03-04T05:49:34.927Z,63.92
2023-03-04T05:50:33.928Z,63.90
2023-03-04T05:51:34.001Z,63.88
2023-03-04T05:52:33.922Z,63.88
2023-03-04T05:53:33.927Z,63.86
2023-03-04T05:54:34.823Z,63.88
2023-03-04T05:55:33.908Z,63.89
2023-03-04T05:56:33.878Z,63.91
2023-03-04T05:57:33.847Z,63.93
2023-03-04T05:58:33.823Z,63.95
2023-03-04T05:59:34.756Z,63.94
2023-03-04T06:00:33.839Z,63.97
2023-03-04T06:01:33.801Z,63.97
2023-03-04T06:02:33.848Z,63.99
2023-03-04T06:03:33.782Z,64.00
2023-03-04T06:04:34.687Z,64.01
2023-03-04T06:05:33.770Z,64.04
2023-03-04T06:06:33.741Z,64.05
2023-03-04T06:07:33.734Z,64.05
2023-03-04T06:08:33.715Z,64.05
2023-03-04T06:09:34.662Z,64.07
2023-03-04T06:10:33.683Z,64.06
2023-03-04T06:11:35.964Z,64.04
2023-03-04T06:12:33.642Z,64.03
2023-03-04T06:13:33.631Z,64.00
2023-03-04T06:14:33.624Z,64.00
2023-03-04T06:15:34.569Z,63.99
2023-03-04T06:16:33.604Z,63.97
2023-03-04T06:17:33.608Z,63.98
2023-03-04T06:18:33.615Z,63.97
2023-03-04T06:19:33.563Z,63.97
2023-03-04T06:20:33.632Z,63.98
2023-03-04T06:21:34.534Z,64.00
2023-03-04T06:22:33.552Z,64.00
2023-03-04T06:23:33.523Z,63.97
2023-03-04T06:24:33.551Z,63.93
2023-03-04T06:25:33.503Z,63.91
2023-03-04T06:26:34.398Z,63.89
2023-03-04T06:27:33.472Z,63.88
2023-03-04T06:28:33.491Z,63.88
2023-03-04T06:29:33.449Z,63.87
2023-03-04T06:30:33.433Z,63.84
2023-03-04T06:31:34.444Z,63.82
2023-03-04T06:32:33.429Z,63.77
2023-03-04T06:33:33.381Z,63.72
2023-03-04T06:34:33.398Z,63.69
2023-03-04T06:35:33.359Z,63.68
2023-03-04T06:36:33.374Z,63.65
2023-03-04T06:37:34.318Z,63.64
2023-03-04T06:38:33.350Z,63.60
2023-03-04T06:39:33.287Z,63.55
2023-03-04T06:40:33.300Z,63.51
2023-03-04T06:41:33.279Z,63.51
2023-03-04T06:42:33.269Z,63.51
2023-03-04T06:43:34.205Z,63.49
2023-03-04T06:44:33.243Z,63.46
2023-03-04T06:45:33.229Z,63.45
2023-03-04T06:46:33.300Z,63.41
2023-03-04T06:47:33.231Z,63.36
2023-03-04T06:48:34.137Z,63.33
2023-03-04T06:49:33.153Z,63.31
2023-03-04T06:50:33.152Z,63.29
2023-03-04T06:51:33.139Z,63.23
2023-03-04T06:52:33.157Z,63.18
2023-03-04T06:53:33.128Z,63.15
2023-03-04T06:54:34.066Z,63.08
2023-03-04T06:55:33.079Z,63.02
2023-03-04T06:56:33.120Z,63.01
2023-03-04T06:57:33.073Z,63.04
2023-03-04T06:58:33.041Z,63.04
2023-03-04T06:59:33.985Z,63.02
2023-03-04T07:00:33.113Z,63.00
2023-03-04T07:01:33.022Z,63.02
2023-03-04T07:02:33.013Z,63.04
2023-03-04T07:03:32.992Z,62.97
2023-03-04T07:04:32.981Z,62.93
2023-03-04T07:05:33.925Z,62.88
2023-03-04T07:06:32.952Z,62.83
2023-03-04T07:07:32.956Z,62.78
2023-03-04T07:08:32.932Z,62.70
2023-03-04T07:09:32.941Z,62.64
2023-03-04T07:10:33.860Z,62.59
2023-03-04T07:11:32.894Z,62.58
2023-03-04T07:12:32.883Z,62.59
2023-03-04T07:13:32.867Z,62.58
2023-03-04T07:14:32.882Z,62.55
2023-03-04T07:15:32.875Z,62.49
2023-03-04T07:16:33.834Z,62.45
2023-03-04T07:17:32.828Z,62.40
2023-03-04T07:18:32.803Z,62.30
2023-03-04T07:19:32.803Z,62.23
2023-03-04T07:20:32.904Z,62.19
2023-03-04T07:21:32.764Z,62.18
2023-03-04T07:22:33.668Z,62.13
2023-03-04T07:23:32.744Z,62.08
2023-03-04T07:24:32.709Z,62.04
2023-03-04T07:25:32.728Z,61.95
2023-03-04T07:26:32.709Z,61.94
2023-03-04T07:27:32.685Z,61.99
2023-03-04T07:28:33.650Z,62.05
2023-03-04T07:29:32.664Z,62.11
2023-03-04T07:30:32.678Z,62.13
2023-03-04T07:31:32.697Z,62.17
2023-03-04T07:32:32.620Z,62.15
2023-03-04T07:33:33.568Z,62.11
2023-03-04T07:34:32.587Z,62.06
2023-03-04T07:35:32.612Z,61.98
2023-03-04T07:36:32.656Z,61.97
2023-03-04T07:37:32.560Z,62.01
2023-03-04T07:38:33.460Z,61.84
2023-03-04T07:39:32.541Z,61.66
2023-03-04T07:40:32.498Z,61.70
2023-03-04T07:41:32.538Z,61.75
2023-03-04T07:42:32.498Z,61.74
2023-03-04T07:43:33.409Z,61.68
2023-03-04T07:44:32.510Z,61.45
2023-03-04T07:45:32.479Z,61.12
2023-03-04T07:46:32.436Z,60.90
2023-03-04T07:47:32.429Z,60.95
2023-03-04T07:48:33.346Z,61.07
2023-03-04T07:49:32.612Z,61.17
2023-03-04T07:50:32.401Z,61.24
2023-03-04T07:51:32.390Z,61.43
2023-03-04T07:52:32.347Z,61.66
2023-03-04T07:53:33.290Z,61.74
2023-03-04T07:54:34.289Z,61.73
2023-03-04T07:55:32.384Z,61.71
2023-03-04T07:56:32.345Z,61.71
2023-03-04T07:57:32.287Z,61.83
2023-03-04T07:58:32.298Z,61.96
2023-03-04T07:59:33.185Z,62.04
2023-03-04T08:00:32.271Z,62.10
2023-03-04T08:01:32.301Z,62.12
2023-03-04T08:02:32.241Z,62.15
2023-03-04T08:03:32.235Z,62.05
2023-03-04T08:04:33.211Z,61.94
2023-03-04T08:05:32.218Z,61.77
2023-03-04T08:06:32.222Z,61.53
2023-03-04T08:07:32.189Z,61.38
2023-03-04T08:08:32.196Z,61.24
2023-03-04T08:09:33.122Z,61.06
2023-03-04T08:10:32.164Z,60.97
2023-03-04T08:11:32.116Z,60.97
2023-03-04T08:12:32.103Z,61.01
2023-03-04T08:13:32.149Z,61.09
2023-03-04T08:14:32.096Z,61.20
2023-03-04T08:15:33.153Z,61.28
2023-03-04T08:16:32.102Z,61.28
2023-03-04T08:17:32.056Z,61.28
2023-03-04T08:18:32.054Z,61.32
2023-03-04T08:19:32.041Z,61.41
2023-03-04T08:20:32.963Z,61.44
2023-03-04T08:21:32.031Z,61.40
2023-03-04T08:22:31.972Z,61.45
2023-03-04T08:23:31.983Z,61.53
2023-03-04T08:24:32.020Z,61.62
2023-03-04T08:25:32.887Z,61.68
2023-03-04T08:26:31.940Z,61.71
2023-03-04T08:27:31.928Z,61.73
2023-03-04T08:28:31.904Z,61.70
2023-03-04T08:29:31.879Z,61.68
2023-03-04T08:30:32.853Z,61.71
2023-03-04T08:31:32.055Z,61.67
2023-03-04T08:32:32.045Z,61.63
2023-03-04T08:33:31.864Z,61.58
2023-03-04T08:34:31.871Z,61.49
2023-03-04T08:35:32.791Z,61.36
2023-03-04T08:36:31.804Z,61.19
2023-03-04T08:37:31.813Z,61.06
2023-03-04T08:38:31.796Z,60.95
2023-03-04T08:39:31.774Z,60.87
2023-03-04T08:40:32.690Z,60.78
2023-03-04T08:41:31.812Z,60.65
2023-03-04T08:42:31.747Z,60.55
2023-03-04T08:43:31.730Z,60.47
2023-03-04T08:44:31.765Z,60.38
2023-03-04T08:45:32.654Z,60.26
2023-03-04T08:46:31.731Z,60.16
2023-03-04T08:47:31.691Z,60.07
2023-03-04T08:48:31.659Z,59.99
2023-03-04T08:49:31.647Z,59.93
2023-03-04T08:50:32.613Z,59.91
2023-03-04T08:51:31.608Z,59.91
2023-03-04T08:52:31.603Z,59.85
2023-03-04T08:53:31.590Z,59.81
2023-03-04T08:54:31.581Z,59.80
2023-03-04T08:55:31.594Z,59.81
2023-03-04T08:56:32.510Z,59.80
2023-03-04T08:57:31.555Z,59.81
2023-03-04T08:58:31.546Z,59.76
2023-03-04T08:59:31.510Z,59.72
2023-03-04T09:00:31.557Z,59.71
2023-03-04T09:01:31.536Z,59.77
2023-03-04T09:02:32.419Z,59.81
2023-03-04T09:03:31.489Z,59.79
2023-03-04T09:04:31.481Z,59.68
2023-03-04T09:05:31.470Z,59.54
2023-03-04T09:06:31.447Z,59.42
2023-03-04T09:07:31.421Z,59.36
2023-03-04T09:08:32.400Z,59.45
2023-03-04T09:09:31.381Z,59.45
2023-03-04T09:10:31.423Z,59.46
2023-03-04T09:11:31.389Z,59.62
2023-03-04T09:12:31.435Z,59.72
2023-03-04T09:13:31.350Z,59.77
2023-03-04T09:14:32.330Z,59.76
2023-03-04T09:15:31.328Z,59.74
2023-03-04T09:16:31.299Z,59.66
2023-03-04T09:17:31.310Z,59.33
2023-03-04T09:18:31.313Z,59.15
2023-03-04T09:19:32.167Z,59.21
2023-03-04T09:20:31.229Z,59.38
2023-03-04T09:21:31.309Z,59.56
2023-03-04T09:22:31.249Z,59.58
2023-03-04T09:23:31.210Z,59.41
2023-03-04T09:24:31.232Z,59.22
2023-03-04T09:25:32.172Z,59.09
2023-03-04T09:26:31.225Z,59.07
2023-03-04T09:27:31.188Z,59.07
2023-03-04T09:28:31.149Z,59.06
2023-03-04T09:29:31.160Z,59.10
2023-03-04T09:30:31.095Z,59.20
2023-03-04T09:31:32.065Z,59.35
2023-03-04T09:32:31.222Z,59.56
2023-03-04T09:33:31.084Z,59.78
2023-03-04T09:34:31.056Z,59.97
2023-03-04T09:35:31.061Z,60.06
2023-03-04T09:36:31.062Z,60.17
2023-03-04T09:37:31.949Z,60.30
2023-03-04T09:38:31.061Z,60.50
2023-03-04T09:39:31.045Z,60.71
2023-03-04T09:40:31.021Z,60.88
2023-03-04T09:41:30.968Z,61.07
2023-03-04T09:42:30.990Z,61.23
2023-03-04T09:43:31.887Z,61.32
2023-03-04T09:44:31.031Z,61.35
2023-03-04T09:45:30.917Z,61.44
2023-03-04T09:46:30.970Z,61.49
2023-03-04T09:47:30.930Z,61.48
2023-03-04T09:48:31.809Z,61.48
2023-03-04T09:49:30.933Z,61.52
2023-03-04T09:50:31.801Z,61.46
2023-03-04T09:51:30.847Z,61.33
2023-03-04T09:52:30.832Z,61.10
2023-03-04T09:53:30.840Z,61.01
2023-03-04T09:54:31.736Z,61.05
2023-03-04T09:55:30.773Z,61.15
2023-03-04T09:56:30.795Z,61.27
2023-03-04T09:57:30.787Z,61.40
2023-03-04T09:58:30.793Z,61.51
2023-03-04T09:59:31.665Z,61.52
2023-03-04T10:00:30.774Z,61.53
2023-03-04T10:01:30.711Z,61.58
2023-03-04T10:02:30.726Z,61.60
2023-03-04T10:03:30.712Z,61.60
2023-03-04T10:04:30.688Z,61.66
2023-03-04T10:05:31.596Z,61.74
2023-03-04T10:06:30.641Z,61.81
2023-03-04T10:07:30.622Z,61.81
2023-03-04T10:08:30.606Z,61.85
2023-03-04T10:09:30.603Z,61.87
2023-03-04T10:10:31.613Z,61.84
2023-03-04T10:11:30.563Z,61.77
2023-03-04T10:12:30.544Z,61.73
2023-03-04T10:13:30.563Z,61.68
2023-03-04T10:14:30.621Z,61.71
2023-03-04T10:15:30.541Z,61.78
2023-03-04T10:16:31.554Z,61.83
2023-03-04T10:17:30.483Z,61.81
2023-03-04T10:18:30.505Z,61.70
2023-03-04T10:19:30.492Z,61.60
2023-03-04T10:20:30.473Z,61.54
2023-03-04T10:21:31.365Z,61.51
2023-03-04T10:22:30.409Z,61.49
2023-03-04T10:23:30.413Z,61.39
2023-03-04T10:24:30.427Z,61.30
2023-03-04T10:25:30.432Z,61.24
2023-03-04T10:26:30.392Z,61.24
2023-03-04T10:27:31.299Z,61.21
2023-03-04T10:28:30.386Z,61.19
2023-03-04T10:29:30.315Z,61.19
2023-03-04T10:30:30.304Z,61.16
2023-03-04T10:31:30.369Z,61.16
2023-03-04T10:32:31.229Z,61.16
2023-03-04T10:33:30.303Z,61.13
2023-03-04T10:34:30.243Z,60.99
2023-03-04T10:35:30.289Z,60.84
2023-03-04T10:36:30.286Z,60.72
2023-03-04T10:37:30.214Z,60.60
2023-03-04T10:38:31.142Z,60.47
2023-03-04T10:39:30.249Z,60.29
2023-03-04T10:40:30.173Z,60.04
2023-03-04T10:41:30.301Z,59.72
2023-03-04T10:42:30.234Z,59.24
2023-03-04T10:43:31.068Z,58.86
2023-03-04T10:44:30.162Z,58.70
2023-03-04T10:45:30.125Z,58.68
2023-03-04T10:46:30.121Z,58.44
2023-03-04T10:47:30.091Z,58.05
2023-03-04T10:48:31.010Z,57.66
2023-03-04T10:49:30.087Z,57.16
2023-03-04T10:50:30.041Z,56.70
2023-03-04T10:51:30.042Z,56.41
2023-03-04T10:52:30.055Z,56.26
2023-03-04T10:53:30.003Z,56.22
2023-03-04T10:54:30.927Z,56.12
2023-03-04T10:55:29.976Z,56.23
2023-03-04T10:56:29.997Z,56.25
2023-03-04T10:57:29.960Z,56.17
2023-03-04T10:58:29.920Z,56.12
2023-03-04T10:59:29.933Z,56.07
2023-03-04T11:00:30.838Z,56.04
2023-03-04T11:01:29.982Z,56.00
2023-03-04T11:02:29.890Z,56.10
2023-03-04T11:03:30.429Z,56.24
2023-03-04T11:04:29.851Z,56.25
2023-03-04T11:05:30.770Z,56.16
2023-03-04T11:06:29.827Z,56.31
2023-03-04T11:07:31.528Z,56.76
2023-03-04T11:08:29.796Z,57.28
2023-03-04T11:09:29.798Z,57.58
2023-03-04T11:10:30.702Z,57.70
2023-03-04T11:11:29.775Z,57.96
2023-03-04T11:12:29.782Z,58.35
2023-03-04T11:13:29.739Z,58.64
2023-03-04T11:14:29.728Z,58.86
2023-03-04T11:15:29.745Z,59.13
2023-03-04T11:16:30.682Z,59.39
2023-03-04T11:17:29.688Z,59.66
2023-03-04T11:18:29.726Z,59.87
2023-03-04T11:19:29.668Z,60.12
2023-03-04T11:20:29.658Z,60.37
2023-03-04T11:21:30.589Z,60.54
2023-03-04T11:22:29.647Z,60.65
2023-03-04T11:23:29.637Z,60.71
2023-03-04T11:24:29.857Z,60.85
2023-03-04T11:25:29.636Z,61.00
2023-03-04T11:26:29.590Z,61.15
2023-03-04T11:27:30.483Z,61.26
2023-03-04T11:28:29.594Z,61.30
2023-03-04T11:29:29.539Z,61.30
2023-03-04T11:30:29.529Z,61.34
2023-03-04T11:31:29.551Z,61.35
2023-03-04T11:32:30.452Z,61.33
2023-03-04T11:33:29.488Z,61.29
2023-03-04T11:34:29.447Z,61.25
2023-03-04T11:35:29.476Z,61.21
2023-03-04T11:36:29.497Z,61.20
2023-03-04T11:37:30.408Z,61.16
2023-03-04T11:38:29.441Z,61.11
2023-03-04T11:39:29.401Z,61.07
2023-03-04T11:40:29.386Z,61.04
2023-03-04T11:41:29.399Z,61.03
2023-03-04T11:42:30.331Z,60.94
2023-03-04T11:43:29.361Z,60.82
2023-03-04T11:44:29.342Z,60.64
2023-03-04T11:45:31.828Z,60.29
2023-03-04T11:46:29.422Z,59.75
2023-03-04T11:47:29.358Z,59.23
2023-03-04T11:48:30.258Z,59.08
2023-03-04T11:49:29.291Z,59.23
2023-03-04T11:50:29.290Z,59.42
2023-03-04T11:51:29.354Z,59.57
2023-03-04T11:52:29.260Z,59.58
2023-03-04T11:53:30.193Z,59.57
2023-03-04T11:54:29.218Z,59.63
2023-03-04T11:55:29.258Z,59.67
2023-03-04T11:56:29.234Z,59.62
2023-03-04T11:57:29.210Z,59.60
2023-03-04T11:58:29.179Z,59.66
2023-03-04T11:59:30.139Z,59.78
2023-03-04T12:00:29.145Z,59.84
2023-03-04T12:01:29.203Z,59.93
2023-03-04T12:02:29.130Z,60.01
2023-03-04T12:03:29.154Z,60.10
2023-03-04T12:04:30.181Z,60.19
2023-03-04T12:05:29.147Z,60.32
2023-03-04T12:06:29.077Z,60.44
2023-03-04T12:07:29.084Z,60.59
2023-03-04T12:08:29.104Z,60.67
2023-03-04T12:09:29.072Z,60.71
2023-03-04T12:10:29.944Z,60.70
2023-03-04T12:11:29.016Z,60.64
2023-03-04T12:12:29.011Z,60.60
2023-03-04T12:13:29.014Z,60.56
2023-03-04T12:14:28.974Z,60.49
2023-03-04T12:15:30.025Z,60.41
2023-03-04T12:16:28.956Z,60.27
2023-03-04T12:17:29.012Z,60.08
2023-03-04T12:18:28.913Z,59.95
2023-03-04T12:19:28.937Z,59.78
2023-03-04T12:20:28.885Z,59.51
2023-03-04T12:21:29.802Z,59.31
2023-03-04T12:22:28.858Z,59.16
2023-03-04T12:23:28.887Z,59.00
2023-03-04T12:24:28.857Z,58.88
2023-03-04T12:25:28.838Z,58.87
2023-03-04T12:26:29.749Z,58.91
2023-03-04T12:27:28.829Z,58.98
2023-03-04T12:28:28.829Z,59.05
2023-03-04T12:29:28.812Z,59.15
2023-03-04T12:30:28.765Z,59.28
2023-03-04T12:31:28.842Z,59.48
2023-03-04T12:32:29.697Z,59.73
2023-03-04T12:33:28.763Z,59.94
2023-03-04T12:34:28.735Z,60.10
2023-03-04T12:35:28.734Z,60.19
2023-03-04T12:36:28.708Z,60.29
2023-03-04T12:37:28.714Z,60.46
2023-03-04T12:38:29.591Z,60.61
2023-03-04T12:39:28.656Z,60.75
2023-03-04T12:40:28.646Z,60.91
2023-03-04T12:41:28.633Z,60.97
2023-03-04T12:42:28.602Z,60.90
2023-03-04T12:43:28.642Z,60.68
2023-03-04T12:44:34.842Z,60.50
2023-03-04T12:45:28.681Z,60.58
2023-03-04T12:46:28.597Z,60.78
2023-03-04T12:47:28.581Z,61.01
2023-03-04T12:48:28.545Z,61.19
2023-03-04T12:49:28.555Z,61.22
2023-03-04T12:50:29.447Z,60.98
2023-03-04T12:51:28.516Z,60.58
2023-03-04T12:52:28.501Z,60.20